createdAt,value
2018-04-07T00:01:15.310Z,14.00
2018-04-07T00:03:43.870Z,8.80
2018-04-07T00:06:12.606Z,8.17
2018-04-07T00:08:41.269Z,15.57
2018-04-07T00:11:10.202Z,9.93
2018-04-07T00:13:39.676Z,9.50
2018-04-07T00:16:08.613Z,8.70
2018-04-07T00:18:37.242Z,7.90
2018-04-07T00:21:05.954Z,8.73
2018-04-07T00:23:34.866Z,11.80
2018-04-07T00:26:03.584Z,17.43
2018-04-07T00:28:32.257Z,9.57
2018-04-07T00:31:01.160Z,9.80
2018-04-07T00:33:29.999Z,9.00
2018-04-07T00:35:58.545Z,8.27
2018-04-07T00:38:27.349Z,8.90
2018-04-07T00:40:56.069Z,14.67
2018-04-07T00:43:25.341Z,11.23
2018-04-07T00:45:54.020Z,11.37
2018-04-07T00:48:22.615Z,12.40
2018-04-07T00:50:51.313Z,13.60
2018-04-07T00:53:19.953Z,9.43
2018-04-07T00:55:48.537Z,9.83
2018-04-07T00:58:17.105Z,8.97
2018-04-07T01:00:45.636Z,13.73
2018-04-07T01:03:14.173Z,13.53
2018-04-07T01:05:42.701Z,12.93
2018-04-07T01:08:11.254Z,6.80
2018-04-07T01:10:40.033Z,7.60
2018-04-07T01:13:08.717Z,13.30
2018-04-07T01:15:37.228Z,7.73
2018-04-07T01:18:05.683Z,11.47
2018-04-07T01:20:37.261Z,5.80
2018-04-07T01:23:05.744Z,7.97
2018-04-07T01:25:34.245Z,9.90
2018-04-07T01:28:02.793Z,11.07
2018-04-07T01:30:31.421Z,13.03
2018-04-07T01:32:59.905Z,7.90
2018-04-07T01:35:28.677Z,16.80
2018-04-07T01:37:57.348Z,8.37
2018-04-07T01:40:25.940Z,9.43
2018-04-07T01:42:54.486Z,8.20
2018-04-07T01:45:23.161Z,12.23
2018-04-07T01:47:51.888Z,12.57
2018-04-07T01:50:20.408Z,14.53
2018-04-07T01:52:48.880Z,12.67
2018-04-07T01:55:17.571Z,8.57
2018-04-07T01:57:46.262Z,18.13
2018-04-07T02:00:14.935Z,11.70
2018-04-07T02:02:43.908Z,14.97
2018-04-07T02:05:12.560Z,13.70
2018-04-07T02:07:41.457Z,8.80
2018-04-07T02:10:10.280Z,10.43
2018-04-07T02:12:38.965Z,9.53
2018-04-07T02:15:07.472Z,10.97
2018-04-07T02:17:36.491Z,11.23
2018-04-07T02:20:05.072Z,10.97
2018-04-07T02:22:32.588Z,8.50
2018-04-07T02:25:00.924Z,10.13
2018-04-07T02:27:29.530Z,17.07
2018-04-07T02:29:58.089Z,10.60
2018-04-07T02:32:26.603Z,14.73
2018-04-07T02:34:55.445Z,12.57
2018-04-07T02:37:24.233Z,13.97
2018-04-07T02:39:52.696Z,10.50
2018-04-07T02:42:21.296Z,9.80
2018-04-07T02:44:49.749Z,11.43
2018-04-07T02:47:18.423Z,15.93
2018-04-07T02:49:47.428Z,10.13
2018-04-07T02:52:16.304Z,11.30
2018-04-07T02:54:44.954Z,13.13
2018-04-07T02:57:13.526Z,17.80
2018-04-07T02:59:42.369Z,13.63
2018-04-07T03:02:10.941Z,10.67
2018-04-07T03:04:39.417Z,13.90
2018-04-07T03:07:07.996Z,16.73
2018-04-07T03:09:36.563Z,19.73
2018-04-07T03:12:05.260Z,12.70
2018-04-07T03:14:33.749Z,15.97
2018-04-07T03:17:02.341Z,12.47
2018-04-07T03:19:30.826Z,11.70
2018-04-07T03:21:59.343Z,14.60
2018-04-07T03:24:27.822Z,17.77
2018-04-07T03:26:56.753Z,14.33
2018-04-07T03:29:25.252Z,14.23
2018-04-07T03:32:53.043Z,15.17
2018-04-07T03:35:21.562Z,12.50
2018-04-07T03:37:50.373Z,11.13
2018-04-07T03:40:18.906Z,15.73
2018-04-07T03:42:47.413Z,16.93
2018-04-07T03:45:16.049Z,14.33
2018-04-07T03:47:44.692Z,14.43
2018-04-07T03:50:13.396Z,23.17
2018-04-07T03:52:41.957Z,12.33
2018-04-07T03:55:10.601Z,24.00
2018-04-07T03:57:39.203Z,14.23
2018-04-07T04:03:18.638Z,13.20
2018-04-07T04:05:48.230Z,13.23
2018-04-07T04:08:17.274Z,17.20
2018-04-07T04:10:46.437Z,16.37
2018-04-07T04:13:15.469Z,14.83
2018-04-07T04:15:44.676Z,14.17
2018-04-07T04:18:13.452Z,14.20
2018-04-07T04:20:42.721Z,16.47
2018-04-07T04:23:11.869Z,18.57
2018-04-07T04:25:41.109Z,20.87
2018-04-07T04:28:10.051Z,15.40
2018-04-07T04:30:39.114Z,13.30
2018-04-07T04:33:08.213Z,15.33
2018-04-07T04:35:37.753Z,14.53
2018-04-07T04:38:07.048Z,19.03
2018-04-07T04:40:36.082Z,14.70
2018-04-07T04:43:05.445Z,17.37
2018-04-07T04:45:34.971Z,15.10
2018-04-07T04:48:03.937Z,12.70
2018-04-07T04:50:33.593Z,14.30
2018-04-07T04:53:02.868Z,13.63
2018-04-07T04:55:31.991Z,17.83
2018-04-07T04:58:01.162Z,16.20
2018-04-07T05:00:31.702Z,18.27
2018-04-07T05:03:00.415Z,20.80
2018-04-07T05:05:29.797Z,18.83
2018-04-07T05:07:59.331Z,21.23
2018-04-07T05:10:28.745Z,17.77
2018-04-07T05:12:57.898Z,16.37
2018-04-07T05:15:27.305Z,15.20
2018-04-07T05:17:56.150Z,17.70
2018-04-07T05:20:25.682Z,15.13
2018-04-07T05:22:55.056Z,13.73
2018-04-07T05:25:24.274Z,12.47
2018-04-07T05:27:53.533Z,15.80
2018-04-07T05:30:23.105Z,15.80
2018-04-07T05:32:52.250Z,15.10
2018-04-07T05:35:21.204Z,19.20
2018-04-07T05:37:50.521Z,21.60
2018-04-07T05:40:19.781Z,24.13
2018-04-07T05:42:48.742Z,17.67
2018-04-07T05:45:18.339Z,26.40
2018-04-07T05:47:47.427Z,16.03
2018-04-07T05:50:16.795Z,20.03
2018-04-07T05:52:45.743Z,20.80
2018-04-07T05:55:19.427Z,16.20
2018-04-07T05:57:48.503Z,16.50
2018-04-07T06:00:17.954Z,21.43
2018-04-07T06:02:47.450Z,19.80
2018-04-07T06:05:16.336Z,14.93
2018-04-07T06:07:45.625Z,20.10
2018-04-07T06:10:14.909Z,20.60
2018-04-07T06:12:44.211Z,18.23
2018-04-07T06:15:13.514Z,16.23
2018-04-07T06:17:42.695Z,16.40
2018-04-07T06:20:12.517Z,16.80
2018-04-07T06:22:41.759Z,16.37
2018-04-07T06:25:10.986Z,19.60
2018-04-07T06:27:39.798Z,18.90
2018-04-07T06:30:09.238Z,16.80
2018-04-07T06:32:38.711Z,15.67
2018-04-07T06:35:07.930Z,19.10
2018-04-07T06:37:37.345Z,16.00
2018-04-07T06:40:06.507Z,13.27
2018-04-07T06:42:35.514Z,15.07
2018-04-07T06:45:04.517Z,20.57
2018-04-07T06:47:33.815Z,17.00
2018-04-07T06:50:02.926Z,13.73
2018-04-07T06:52:31.834Z,20.03
2018-04-07T06:55:01.107Z,21.80
2018-04-07T06:57:29.978Z,20.30
2018-04-07T06:59:59.294Z,16.23
2018-04-07T07:02:28.747Z,18.77
2018-04-07T07:04:58.088Z,18.33
2018-04-07T07:07:27.803Z,15.00
2018-04-07T07:09:56.627Z,17.00
2018-04-07T07:12:25.906Z,17.83
2018-04-07T07:14:55.506Z,16.47
2018-04-07T07:17:24.611Z,18.93
2018-04-07T07:19:53.703Z,22.93
2018-04-07T07:22:22.899Z,18.93
2018-04-07T07:24:52.173Z,13.90
2018-04-07T07:27:22.802Z,15.37
2018-04-07T07:29:52.142Z,19.60
2018-04-07T07:32:21.538Z,11.93
2018-04-07T07:34:50.827Z,19.70
2018-04-07T07:37:20.000Z,18.23
2018-04-07T07:39:49.026Z,15.27
2018-04-07T07:42:18.383Z,19.90
2018-04-07T07:44:47.822Z,13.20
2018-04-07T07:47:17.174Z,26.60
2018-04-07T07:49:46.215Z,19.60
2018-04-07T07:52:15.400Z,16.27
2018-04-07T07:54:44.694Z,21.40
2018-04-07T07:57:15.220Z,22.53
2018-04-07T07:59:44.354Z,15.00
2018-04-07T08:02:13.586Z,15.80
2018-04-07T08:04:42.658Z,15.17
2018-04-07T08:07:11.914Z,20.23
2018-04-07T08:09:41.746Z,16.67
2018-04-07T08:12:12.269Z,16.27
2018-04-07T08:14:41.741Z,15.27
2018-04-07T08:17:11.300Z,14.33
2018-04-07T08:19:40.447Z,16.83
2018-04-07T08:22:09.660Z,14.00
2018-04-07T08:24:39.214Z,13.50
2018-04-07T08:27:09.549Z,14.33
2018-04-07T08:29:38.669Z,18.27
2018-04-07T08:32:08.558Z,14.33
2018-04-07T08:34:37.842Z,16.33
2018-04-07T08:37:07.299Z,19.90
2018-04-07T08:39:36.682Z,17.10
2018-04-07T08:42:06.128Z,18.50
2018-04-07T08:44:35.509Z,12.00
2018-04-07T08:47:04.926Z,13.87
2018-04-07T08:49:34.275Z,18.67
2018-04-07T08:52:03.509Z,16.57
2018-04-07T08:54:32.564Z,13.60
2018-04-07T08:57:02.335Z,15.50
2018-04-07T08:59:31.408Z,17.47
2018-04-07T09:02:00.764Z,16.63
2018-04-07T09:04:30.151Z,15.40
2018-04-07T09:06:59.935Z,19.37
2018-04-07T09:09:28.849Z,15.17
2018-04-07T09:11:57.818Z,12.07
2018-04-07T09:14:26.978Z,26.27
2018-04-07T09:16:57.302Z,14.40
2018-04-07T09:19:26.170Z,22.17
2018-04-07T09:21:55.791Z,15.77
2018-04-07T09:24:25.823Z,14.17
2018-04-07T09:26:55.218Z,11.10
2018-04-07T09:29:25.280Z,21.90
2018-04-07T09:31:55.055Z,21.33
2018-04-07T09:34:25.230Z,17.50
2018-04-07T09:36:55.255Z,14.27
2018-04-07T09:39:24.583Z,16.37
2018-04-07T09:41:54.219Z,14.50
2018-04-07T09:44:24.463Z,16.07
2018-04-07T09:46:54.030Z,15.40
2018-04-07T09:49:23.295Z,12.00
2018-04-07T09:51:52.360Z,14.20
2018-04-07T09:54:21.443Z,12.70
2018-04-07T09:56:50.431Z,17.13
2018-04-07T09:59:19.334Z,11.87
2018-04-07T10:01:48.613Z,13.83
2018-04-07T10:04:18.573Z,12.97
2018-04-07T10:06:47.957Z,17.80
2018-04-07T10:09:17.731Z,14.40
2018-04-07T10:11:47.175Z,14.77
2018-04-07T10:14:16.428Z,13.63
2018-04-07T10:16:46.031Z,11.57
2018-04-07T10:19:15.188Z,12.00
2018-04-07T10:21:44.298Z,10.53
2018-04-07T10:24:13.862Z,18.53
2018-04-07T10:26:43.390Z,12.97
2018-04-07T10:29:12.600Z,13.80
2018-04-07T10:31:41.422Z,8.53
2018-04-07T10:34:10.739Z,13.03
2018-04-07T10:36:39.861Z,13.40
2018-04-07T10:39:09.898Z,12.00
2018-04-07T10:41:39.262Z,10.50
2018-04-07T10:44:08.667Z,13.07
2018-04-07T10:46:37.941Z,17.10
2018-04-07T10:49:06.761Z,10.93
2018-04-07T10:51:39.664Z,15.47
2018-04-07T10:54:08.758Z,15.73
2018-04-07T10:56:38.095Z,13.23
2018-04-07T10:59:07.082Z,13.13
2018-04-07T11:01:37.541Z,9.70
2018-04-07T11:04:07.386Z,11.27
2018-04-07T11:06:45.713Z,9.63
2018-04-07T11:09:15.803Z,16.50
2018-04-07T11:11:45.194Z,17.93
2018-04-07T11:14:14.425Z,13.53
2018-04-07T11:16:43.731Z,13.30
2018-04-07T11:19:12.725Z,14.57
2018-04-07T11:21:41.750Z,10.80
2018-04-07T11:24:10.858Z,15.10
2018-04-07T11:26:39.821Z,15.90
2018-04-07T11:29:09.211Z,11.10
2018-04-07T11:31:38.538Z,13.97
2018-04-07T11:34:07.895Z,11.33
2018-04-07T11:36:37.056Z,12.73
2018-04-07T11:39:06.401Z,11.83
2018-04-07T11:41:35.633Z,11.40
2018-04-07T11:44:05.706Z,14.20
2018-04-07T11:46:34.818Z,18.83
2018-04-07T11:49:07.019Z,10.23
2018-04-07T11:51:36.746Z,11.70
2018-04-07T11:54:05.660Z,12.20
2018-04-07T11:56:35.760Z,11.37
2018-04-07T11:59:04.822Z,10.30
2018-04-07T12:01:36.287Z,13.07
2018-04-07T12:04:05.649Z,11.50
2018-04-07T12:06:35.060Z,9.10
2018-04-07T12:09:04.226Z,15.00
2018-04-07T12:11:33.763Z,11.63
2018-04-07T12:14:02.852Z,10.60
2018-04-07T12:16:32.278Z,8.03
2018-04-07T12:19:01.451Z,17.70
2018-04-07T12:21:30.767Z,9.53
2018-04-07T12:23:59.907Z,9.17
2018-04-07T12:26:28.942Z,10.63
2018-04-07T12:28:58.503Z,9.10
2018-04-07T12:31:27.616Z,9.57
2018-04-07T12:33:57.379Z,13.73
2018-04-07T12:36:26.712Z,10.40
2018-04-07T12:38:55.955Z,6.33
2018-04-07T12:41:25.401Z,10.13
2018-04-07T12:43:55.502Z,9.37
2018-04-07T12:46:25.141Z,13.37
2018-04-07T12:48:56.259Z,8.40
2018-04-07T12:51:25.497Z,16.63
2018-04-07T12:53:55.309Z,7.87
2018-04-07T12:56:25.020Z,14.90
2018-04-07T12:58:55.620Z,7.70
2018-04-07T13:01:24.710Z,12.80
2018-04-07T13:03:53.904Z,10.23
2018-04-07T13:06:24.067Z,9.53
2018-04-07T13:08:53.250Z,7.03
2018-04-07T13:11:22.510Z,16.87
2018-04-07T13:13:51.827Z,11.77
2018-04-07T13:16:21.240Z,7.20
2018-04-07T13:18:50.527Z,6.47
2018-04-07T13:21:19.872Z,7.03
2018-04-07T13:23:48.922Z,8.67
2018-04-07T13:26:17.835Z,8.97
2018-04-07T13:28:47.845Z,8.77
2018-04-07T13:31:16.875Z,8.27
2018-04-07T13:33:46.295Z,8.43
2018-04-07T13:36:16.270Z,10.00
2018-04-07T13:38:45.439Z,11.77
2018-04-07T13:41:14.494Z,12.50
2018-04-07T13:43:43.927Z,9.07
2018-04-07T13:46:13.242Z,5.30
2018-04-07T13:48:42.340Z,12.73
2018-04-07T13:51:11.279Z,7.67
2018-04-07T13:53:40.690Z,8.30
2018-04-07T13:56:10.043Z,16.07
2018-04-07T13:58:40.057Z,8.77
2018-04-07T14:01:09.505Z,8.20
2018-04-07T14:03:38.738Z,9.80
2018-04-07T14:06:09.862Z,11.73
2018-04-07T14:08:39.482Z,6.70
2018-04-07T14:11:08.715Z,14.10
2018-04-07T14:13:37.752Z,6.23
2018-04-07T14:16:06.786Z,7.80
2018-04-07T14:18:35.712Z,7.30
2018-04-07T14:21:05.186Z,7.90
2018-04-07T14:23:34.498Z,7.30
2018-04-07T14:26:03.915Z,6.87
2018-04-07T14:28:33.273Z,10.53
2018-04-07T14:31:02.752Z,14.27
2018-04-07T14:33:32.077Z,10.37
2018-04-07T14:36:01.303Z,11.20
2018-04-07T14:38:30.861Z,13.27
2018-04-07T14:41:00.039Z,9.83
2018-04-07T14:43:29.559Z,13.40
2018-04-07T14:45:58.839Z,10.77
2018-04-07T14:48:27.903Z,7.67
2018-04-07T14:50:57.751Z,9.03
2018-04-07T14:53:26.819Z,10.37
2018-04-07T14:55:56.318Z,10.50
2018-04-07T14:58:26.451Z,10.47
2018-04-07T15:00:55.664Z,7.97
2018-04-07T15:03:24.917Z,8.90
2018-04-07T15:05:54.699Z,11.90
2018-04-07T15:08:23.763Z,9.77
2018-04-07T15:10:54.029Z,10.13
2018-04-07T15:13:23.023Z,14.57
2018-04-07T15:15:52.106Z,9.00
2018-04-07T15:18:21.394Z,8.77
2018-04-07T15:20:50.703Z,10.93
2018-04-07T15:23:20.036Z,10.93
2018-04-07T15:25:49.646Z,11.90
2018-04-07T15:28:19.510Z,12.63
2018-04-07T15:30:52.787Z,13.87
2018-04-07T15:33:21.971Z,12.87
2018-04-07T15:35:51.128Z,10.50
2018-04-07T15:38:21.812Z,19.27
2018-04-07T15:40:51.211Z,9.57
2018-04-07T15:43:20.561Z,11.93
2018-04-07T15:45:51.517Z,7.37
2018-04-07T15:48:21.473Z,11.40
2018-04-07T15:50:50.354Z,12.93
2018-04-07T15:53:19.952Z,11.57
2018-04-07T15:55:49.570Z,8.37
2018-04-07T15:58:18.701Z,8.43
2018-04-07T16:00:48.143Z,10.10
2018-04-07T16:03:17.353Z,14.30
2018-04-07T16:05:47.264Z,16.97
2018-04-07T16:08:16.697Z,7.10
2018-04-07T16:10:47.196Z,7.40
2018-04-07T16:13:16.649Z,8.07
2018-04-07T16:15:46.211Z,6.70
2018-04-07T16:18:16.199Z,10.70
2018-04-07T16:20:47.015Z,10.00
2018-04-07T16:23:16.946Z,8.20
2018-04-07T16:25:46.335Z,7.93
2018-04-07T16:28:16.348Z,12.53
2018-04-07T16:30:45.747Z,10.23
2018-04-07T16:33:14.656Z,7.77
2018-04-07T16:35:43.911Z,9.13
2018-04-07T16:38:13.489Z,7.30
2018-04-07T16:40:42.676Z,9.30
2018-04-07T16:43:12.859Z,9.07
2018-04-07T16:45:42.340Z,13.40
2018-04-07T16:48:11.466Z,7.63
2018-04-07T16:50:40.624Z,10.77
2018-04-07T16:53:09.903Z,14.70
2018-04-07T16:55:38.918Z,15.23
2018-04-07T16:58:13.264Z,11.70
2018-04-07T17:00:43.470Z,9.93
2018-04-07T17:03:13.684Z,12.40
2018-04-07T17:05:43.103Z,11.97
2018-04-07T17:08:13.047Z,7.97
2018-04-07T17:10:42.395Z,13.50
2018-04-07T17:13:11.668Z,14.23
2018-04-07T17:15:40.663Z,11.30
2018-04-07T17:18:10.222Z,8.17
2018-04-07T17:20:39.423Z,9.90
2018-04-07T17:23:08.880Z,13.70
2018-04-07T17:25:38.113Z,9.47
2018-04-07T17:28:07.586Z,13.43
2018-04-07T17:30:37.935Z,10.80
2018-04-07T17:33:07.240Z,11.80
2018-04-07T17:35:36.761Z,13.33
2018-04-07T17:38:06.774Z,11.67
2018-04-07T17:40:36.227Z,10.10
2018-04-07T17:43:05.312Z,10.67
2018-04-07T17:45:36.136Z,10.37
2018-04-07T17:48:05.828Z,8.40
2018-04-07T17:50:35.270Z,11.53
2018-04-07T17:53:04.312Z,10.67
2018-04-07T17:55:33.597Z,14.73
2018-04-07T17:58:03.003Z,9.67
2018-04-07T18:00:34.113Z,12.30
2018-04-07T18:03:04.866Z,15.07
2018-04-07T18:05:35.024Z,12.43
2018-04-07T18:08:04.135Z,10.53
2018-04-07T18:10:33.225Z,8.00
2018-04-07T18:13:02.757Z,15.40
2018-04-07T18:15:32.213Z,17.00
2018-04-07T18:18:01.430Z,21.73
2018-04-07T18:20:30.823Z,35.73
2018-04-07T18:23:00.187Z,22.53
2018-04-07T18:25:29.411Z,22.77
2018-04-07T18:27:59.804Z,15.43
2018-04-07T18:30:29.190Z,16.00
2018-04-07T18:32:59.542Z,14.00
2018-04-07T18:36:35.596Z,18.93
2018-04-07T18:39:07.019Z,28.40
2018-04-07T18:41:36.278Z,17.40
2018-04-07T18:44:05.394Z,22.23
2018-04-07T18:46:35.228Z,20.13
2018-04-07T18:49:04.350Z,17.17
2018-04-07T18:51:36.222Z,29.43
2018-04-07T18:54:05.430Z,22.30
2018-04-07T18:56:35.220Z,32.83
2018-04-07T18:59:06.392Z,35.10
2018-04-07T19:01:35.944Z,30.07
2018-04-07T19:04:06.342Z,32.40
2018-04-07T19:06:37.542Z,22.03
2018-04-07T19:09:07.432Z,29.13
2018-04-07T19:11:37.093Z,27.37
2018-04-07T19:14:07.843Z,30.90
2018-04-07T19:16:37.569Z,28.40
2018-04-07T19:19:06.601Z,27.17
2018-04-07T19:21:36.122Z,27.57
2018-04-07T19:24:06.529Z,21.73
2018-04-07T19:26:35.851Z,23.23
2018-04-07T19:29:06.031Z,30.87
2018-04-07T19:31:36.528Z,17.87
2018-04-07T19:34:06.010Z,28.70
2018-04-07T19:36:36.611Z,28.63
2018-04-07T19:39:06.374Z,24.40
2018-04-07T19:41:36.269Z,28.17
2018-04-07T19:44:06.317Z,51.97
2018-04-07T19:46:36.514Z,29.33
2018-04-07T19:49:07.455Z,21.10
2018-04-07T19:51:39.482Z,26.90
2018-04-07T19:54:09.627Z,28.10
2018-04-07T19:56:39.807Z,28.43
2018-04-07T19:59:10.817Z,23.30
2018-04-07T20:01:40.286Z,23.20
2018-04-07T20:04:09.449Z,20.37
2018-04-07T20:06:38.667Z,28.37
2018-04-07T20:09:07.602Z,21.63
2018-04-07T20:11:38.378Z,20.47
2018-04-07T20:14:07.702Z,21.13
2018-04-07T20:16:37.215Z,30.63
2018-04-07T20:19:06.544Z,24.03
2018-04-07T20:21:35.607Z,26.70
2018-04-07T20:24:04.703Z,26.03
2018-04-07T20:26:33.749Z,35.87
2018-04-07T20:29:02.901Z,27.50
2018-04-07T20:31:32.120Z,36.77
2018-04-07T20:34:01.357Z,29.07
2018-04-07T20:36:30.381Z,34.93
2018-04-07T20:39:00.056Z,30.13
2018-04-07T20:41:29.335Z,34.60
2018-04-07T20:43:59.425Z,33.57
2018-04-07T20:46:29.066Z,25.77
2018-04-07T20:48:58.489Z,27.60
2018-04-07T20:51:27.546Z,30.63
2018-04-07T20:53:56.606Z,30.53
2018-04-07T20:56:26.730Z,40.13
2018-04-07T20:58:56.470Z,49.03
2018-04-07T21:01:26.926Z,46.90
2018-04-07T21:03:56.968Z,60.03
2018-04-07T21:06:26.272Z,30.73
2018-04-07T21:08:56.242Z,36.60
2018-04-07T21:11:25.867Z,42.63
2018-04-07T21:13:55.977Z,48.40
2018-04-07T21:16:26.549Z,68.70
2018-04-07T21:18:55.622Z,65.77
2018-04-07T21:21:31.546Z,65.83
2018-04-07T21:24:01.127Z,46.20
2018-04-07T21:26:30.583Z,52.47
2018-04-07T21:29:00.782Z,49.10
2018-04-07T21:31:30.203Z,54.10
2018-04-07T21:34:03.707Z,59.60
2018-04-07T21:36:33.335Z,58.63
2018-04-07T21:39:02.534Z,67.43
2018-04-07T21:41:32.572Z,77.77
2018-04-07T21:44:02.301Z,55.77
2018-04-07T21:46:32.627Z,55.80
2018-04-07T21:49:05.867Z,44.93
2018-04-07T21:51:35.832Z,47.77
2018-04-07T21:54:06.335Z,37.57
2018-04-07T21:56:35.595Z,36.60
2018-04-07T21:59:05.522Z,49.13
2018-04-07T22:01:35.102Z,48.30
2018-04-07T22:04:06.178Z,156.00
2018-04-07T22:06:36.462Z,405.77
2018-04-07T22:09:06.526Z,110.23
2018-04-07T22:11:36.118Z,68.73
2018-04-07T22:14:08.104Z,40.93
2018-04-07T22:16:37.968Z,25.90
2018-04-07T22:19:07.253Z,22.20
2018-04-07T22:21:36.845Z,21.30
2018-04-07T22:24:06.101Z,20.77
2018-04-07T22:26:35.088Z,22.23
2018-04-07T22:29:05.073Z,19.77
2018-04-07T22:31:34.512Z,18.50
2018-04-07T22:34:03.417Z,18.60
2018-04-07T22:36:32.802Z,34.73
2018-04-07T22:39:01.963Z,21.50
2018-04-07T22:41:31.394Z,19.93
2018-04-07T22:44:00.511Z,26.00
2018-04-07T22:46:29.623Z,16.80
2018-04-07T22:48:58.935Z,17.13
2018-04-07T22:51:28.031Z,21.20
2018-04-07T22:53:57.390Z,18.20
2018-04-07T22:56:26.902Z,19.73
2018-04-07T22:58:57.470Z,15.70
2018-04-07T23:02:40.629Z,17.37
2018-04-07T23:05:10.379Z,17.20
2018-04-07T23:07:39.257Z,16.83
2018-04-07T23:10:09.530Z,14.80
2018-04-07T23:12:38.885Z,22.60
2018-04-07T23:15:08.354Z,24.87
2018-04-07T23:17:37.385Z,21.90
2018-04-07T23:20:07.566Z,17.00
2018-04-07T23:22:37.035Z,12.63
2018-04-07T23:25:06.955Z,17.80
2018-04-07T23:27:36.307Z,17.47
2018-04-07T23:30:05.640Z,16.10
2018-04-07T23:32:35.371Z,17.63
2018-04-07T23:35:05.565Z,14.30
2018-04-07T23:37:34.713Z,17.63
2018-04-07T23:40:04.009Z,14.00
2018-04-07T23:42:33.108Z,16.60
2018-04-07T23:45:02.230Z,15.57
2018-04-07T23:47:32.118Z,15.03
2018-04-07T23:50:00.990Z,13.83
2018-04-07T23:52:30.082Z,20.07
2018-04-07T23:54:59.455Z,16.83
2018-04-07T23:57:28.999Z,15.60
2018-04-07T23:59:57.953Z,15.27
